createdAt,value
2022-10-18T05:11:42.911Z,36.70
2022-10-18T05:34:48.063Z,37.70
2022-10-18T05:38:09.301Z,29.83
2022-10-18T05:59:04.553Z,34.60
2022-10-18T06:11:29.105Z,35.95
2022-10-18T06:43:54.449Z,31.42
2022-10-18T06:46:44.363Z,36.30
2022-10-18T06:49:18.955Z,28.70
2022-10-18T06:51:46.906Z,31.30
2022-10-18T06:54:19.143Z,36.63
2022-10-18T06:56:52.917Z,36.83
2022-10-18T07:03:53.831Z,35.03
2022-10-18T07:06:35.094Z,40.10
2022-10-18T07:09:51.344Z,39.00
2022-10-18T07:12:46.619Z,35.40
2022-10-18T07:16:01.318Z,36.88
2022-10-18T07:22:46.822Z,36.97
2022-10-18T07:29:19.480Z,34.80
2022-10-18T07:32:24.976Z,36.13
2022-10-18T07:46:50.913Z,29.08
2022-10-18T07:56:28.886Z,29.40
2022-10-18T07:58:56.924Z,26.95
2022-10-18T08:01:25.633Z,30.67
2022-10-18T08:03:53.902Z,31.55
2022-10-18T08:06:23.145Z,35.38
2022-10-18T08:08:51.035Z,27.42
2022-10-18T08:11:21.304Z,26.60
2022-10-18T08:13:49.139Z,25.42
2022-10-18T08:16:22.740Z,27.88
2022-10-18T08:18:50.806Z,25.25
2022-10-18T08:21:20.256Z,29.33
2022-10-18T08:23:48.827Z,25.45
2022-10-18T08:26:19.009Z,22.27
2022-10-18T08:28:54.186Z,21.90
2022-10-18T08:31:31.260Z,26.17
2022-10-18T08:33:58.753Z,24.58
2022-10-18T08:36:26.332Z,23.05
2022-10-18T08:38:53.886Z,24.77
2022-10-18T08:41:36.245Z,21.00
2022-10-18T08:44:18.797Z,21.02
2022-10-18T08:46:49.500Z,19.23
2022-10-18T08:49:47.269Z,19.15
2022-10-18T08:52:48.813Z,22.50
2022-10-18T08:55:25.616Z,21.83
2022-10-18T08:57:53.406Z,24.00
2022-10-18T09:00:24.094Z,22.52
2022-10-18T09:03:13.379Z,20.60
2022-10-18T09:05:55.333Z,23.65
2022-10-18T09:08:22.793Z,19.45
2022-10-18T09:11:10.228Z,21.98
2022-10-18T09:13:40.360Z,20.92
2022-10-18T09:16:21.363Z,21.88
2022-10-18T09:19:03.703Z,26.42
2022-10-18T09:21:54.122Z,20.70
2022-10-18T09:24:37.444Z,24.45
2022-10-18T09:27:26.806Z,20.13
2022-10-18T09:30:10.196Z,22.52
2022-10-18T09:32:51.082Z,22.30
2022-10-18T09:35:24.260Z,22.75
2022-10-18T09:38:01.015Z,22.92
2022-10-18T09:40:33.184Z,23.55
2022-10-18T09:43:08.254Z,22.75
2022-10-18T09:45:39.995Z,21.30
2022-10-18T09:48:17.261Z,18.38
2022-10-18T09:51:02.382Z,25.23
2022-10-18T09:53:41.215Z,19.08
2022-10-18T09:56:22.562Z,21.02
2022-10-18T09:58:51.579Z,20.00
2022-10-18T10:01:23.111Z,20.10
2022-10-18T10:03:51.027Z,19.27
2022-10-18T10:06:18.506Z,19.88
2022-10-18T10:08:55.056Z,18.83
2022-10-18T10:11:58.396Z,20.25
2022-10-18T10:14:28.847Z,23.77
2022-10-18T10:17:05.852Z,21.50
2022-10-18T10:19:37.678Z,20.95
2022-10-18T10:22:14.171Z,20.70
2022-10-18T10:24:53.312Z,23.35
2022-10-18T10:27:34.041Z,23.13
2022-10-18T10:30:07.565Z,19.08
2022-10-18T10:32:49.478Z,21.70
2022-10-18T10:35:54.376Z,22.83
2022-10-18T10:38:29.658Z,13.18
2022-10-18T10:40:58.356Z,15.57
2022-10-18T10:43:44.311Z,17.75
2022-10-18T10:46:20.296Z,14.43
2022-10-18T10:49:21.648Z,12.85
2022-10-18T10:52:02.521Z,12.05
2022-10-18T10:54:50.290Z,15.82
2022-10-18T10:57:28.306Z,18.10
2022-10-18T10:59:59.736Z,19.00
2022-10-18T11:02:36.071Z,23.80
2022-10-18T11:05:23.205Z,22.13
2022-10-18T11:07:55.355Z,21.95
2022-10-18T11:10:31.106Z,19.73
2022-10-18T11:13:23.739Z,17.40
2022-10-18T11:16:00.444Z,21.90
2022-10-18T11:18:34.270Z,13.60
2022-10-18T11:21:11.605Z,15.75
2022-10-18T11:23:42.123Z,14.20
2022-10-18T11:26:12.504Z,10.73
2022-10-18T11:29:12.273Z,11.18
2022-10-18T11:31:45.165Z,16.98
2022-10-18T11:34:46.373Z,14.30
2022-10-18T11:37:45.207Z,11.30
2022-10-18T11:40:51.458Z,10.57
2022-10-18T11:44:04.024Z,9.65
2022-10-18T11:47:10.343Z,10.50
2022-10-18T11:52:34.634Z,14.30
2022-10-18T11:55:23.004Z,15.45
2022-10-18T11:58:12.638Z,17.88
2022-10-18T12:00:50.971Z,17.27
2022-10-18T12:03:55.749Z,16.05
2022-10-18T12:06:28.350Z,17.40
2022-10-18T12:09:02.956Z,18.42
2022-10-18T12:11:46.913Z,15.25
2022-10-18T12:14:30.802Z,16.52
2022-10-18T12:17:35.689Z,20.75
2022-10-18T12:19:52.306Z,20.13
2022-10-18T12:22:22.783Z,20.63
2022-10-18T12:24:50.565Z,19.85
2022-10-18T12:27:22.718Z,23.85
2022-10-18T12:30:06.796Z,22.23
2022-10-18T12:32:36.550Z,21.17
2022-10-18T12:35:17.032Z,24.15
2022-10-18T12:38:06.178Z,27.65
2022-10-18T12:40:41.507Z,26.88
2022-10-18T12:43:16.832Z,33.33
2022-10-18T12:46:10.712Z,37.15
2022-10-18T12:48:45.481Z,34.53
2022-10-18T12:51:15.400Z,36.65
2022-10-18T12:53:49.177Z,34.97
2022-10-18T12:56:28.583Z,37.70
2022-10-18T12:59:14.348Z,41.53
2022-10-18T13:01:50.883Z,41.42
2022-10-18T13:04:27.524Z,39.55
2022-10-18T13:06:58.162Z,41.30
2022-10-18T13:09:28.811Z,32.42
2022-10-18T13:12:18.795Z,29.90
2022-10-18T13:15:26.346Z,25.30
2022-10-18T13:18:03.296Z,29.10
2022-10-18T13:20:44.278Z,38.45
2022-10-18T13:23:35.362Z,27.73
2022-10-18T13:26:20.355Z,28.65
2022-10-18T13:29:20.749Z,30.02
2022-10-18T13:31:59.583Z,32.70
2022-10-18T13:34:34.797Z,29.92
2022-10-18T13:37:11.689Z,29.73
2022-10-18T13:39:48.584Z,30.17
2022-10-18T13:43:04.599Z,28.63
2022-10-18T13:52:27.722Z,32.40
2022-10-18T13:55:19.693Z,34.45
2022-10-18T13:57:59.106Z,31.45
2022-10-18T14:00:32.388Z,30.40
2022-10-18T14:03:00.260Z,35.83
2022-10-18T14:06:26.531Z,33.15
2022-10-18T14:10:09.149Z,30.73
2022-10-18T14:13:13.169Z,32.70
2022-10-18T14:16:23.384Z,33.55
2022-10-18T14:18:57.907Z,30.98
2022-10-18T14:21:37.703Z,29.55
2022-10-18T14:24:17.774Z,32.63
2022-10-18T14:26:45.334Z,32.53
2022-10-18T14:29:22.216Z,32.40
2022-10-18T14:32:03.138Z,32.72
2022-10-18T14:34:37.892Z,36.00
2022-10-18T14:37:39.477Z,33.28
2022-10-18T14:40:40.819Z,36.15
2022-10-18T14:43:16.874Z,34.40
2022-10-18T14:49:57.860Z,35.65
2022-10-18T14:52:35.129Z,36.35
2022-10-18T14:55:16.348Z,39.85
2022-10-18T14:57:46.461Z,34.85
2022-10-18T15:00:31.438Z,33.45
2022-10-18T15:03:13.695Z,35.13
2022-10-18T15:06:10.468Z,36.75
2022-10-18T15:08:44.975Z,36.60
2022-10-18T15:11:20.241Z,34.72
2022-10-18T15:14:13.884Z,36.78
2022-10-18T15:16:46.866Z,29.02
2022-10-18T15:19:14.412Z,34.50
2022-10-18T15:25:33.020Z,34.45
2022-10-18T15:28:39.687Z,35.50
2022-10-18T15:31:33.617Z,35.58
2022-10-18T15:36:49.607Z,36.72
2022-10-18T15:39:21.522Z,31.67
2022-10-18T15:41:55.399Z,33.10
2022-10-18T15:44:51.279Z,29.80
2022-10-18T15:47:21.744Z,32.75
2022-10-18T15:49:56.260Z,32.95
2022-10-18T15:52:39.353Z,31.73
2022-10-18T15:55:31.611Z,31.77
2022-10-18T15:58:23.028Z,31.63
2022-10-18T16:00:52.666Z,34.17
2022-10-18T16:03:24.706Z,37.45
2022-10-18T16:06:07.948Z,34.15
2022-10-18T16:08:44.518Z,32.17
2022-10-18T16:11:14.190Z,32.25
2022-10-18T16:13:42.682Z,35.35
2022-10-18T16:16:19.785Z,39.13
2022-10-18T16:18:47.769Z,33.08
2022-10-18T16:21:27.665Z,33.85
2022-10-18T16:23:58.586Z,34.40
2022-10-18T16:26:27.740Z,40.53
2022-10-18T16:28:56.234Z,33.67
2022-10-18T16:31:26.491Z,31.92
2022-10-18T16:33:55.187Z,34.83
2022-10-18T16:36:26.241Z,32.53
2022-10-18T16:38:55.170Z,33.45
2022-10-18T16:41:23.367Z,36.55
2022-10-18T16:43:56.285Z,31.25
2022-10-18T16:46:30.323Z,36.42
2022-10-18T16:48:58.613Z,42.63
2022-10-18T16:51:26.346Z,33.75
2022-10-18T16:53:54.420Z,34.45
2022-10-18T16:56:23.456Z,39.95
2022-10-18T16:58:51.710Z,37.13
2022-10-18T17:01:21.927Z,37.22
2022-10-18T17:03:52.240Z,34.90
2022-10-18T17:06:23.676Z,35.80
2022-10-18T17:08:54.460Z,36.13
2022-10-18T17:11:27.045Z,37.13
2022-10-18T17:13:55.424Z,37.22
2022-10-18T17:18:59.021Z,37.10
2022-10-18T17:21:27.835Z,33.35
2022-10-18T17:23:55.931Z,38.08
2022-10-18T17:26:28.859Z,44.10
2022-10-18T17:29:00.568Z,38.03
2022-10-18T17:31:29.747Z,38.75
2022-10-18T17:34:05.927Z,33.70
2022-10-18T17:36:34.116Z,41.85
2022-10-18T17:39:02.172Z,42.75
2022-10-18T17:41:30.823Z,39.55
2022-10-18T17:43:58.430Z,38.35
2022-10-18T17:46:26.117Z,45.20
2022-10-18T17:48:54.031Z,42.72
2022-10-18T17:51:22.058Z,45.47
2022-10-18T17:53:49.607Z,38.67
2022-10-18T17:56:17.164Z,43.20
2022-10-18T17:58:45.686Z,46.90
2022-10-18T18:01:18.694Z,43.47
2022-10-18T18:03:49.815Z,49.05
2022-10-18T18:06:20.164Z,43.08
2022-10-18T18:08:49.003Z,44.80
2022-10-18T18:11:17.848Z,47.15
2022-10-18T18:13:47.707Z,49.60
2022-10-18T18:16:21.793Z,49.58
2022-10-18T18:18:51.965Z,48.33
2022-10-18T18:21:20.347Z,46.80
2022-10-18T18:23:48.817Z,47.35
2022-10-18T18:26:18.028Z,40.90
2022-10-18T18:28:45.933Z,48.90
2022-10-18T18:31:19.639Z,44.22
2022-10-18T18:33:47.130Z,44.30
2022-10-18T18:36:14.669Z,42.65
2022-10-18T18:38:45.322Z,46.33
2022-10-18T18:41:21.994Z,48.22
2022-10-18T18:43:58.454Z,44.50
2022-10-18T18:46:29.066Z,43.45
2022-10-18T18:48:59.959Z,46.15
2022-10-18T18:51:28.552Z,42.63
2022-10-18T18:53:56.085Z,50.35
2022-10-18T18:56:25.597Z,47.42
2022-10-18T18:58:54.013Z,46.85
2022-10-18T19:01:24.115Z,49.50
2022-10-18T19:03:54.463Z,46.85
2022-10-18T19:06:34.789Z,44.92
2022-10-18T19:09:04.874Z,43.90
2022-10-18T19:11:34.755Z,48.08
2022-10-18T19:14:03.067Z,44.10
2022-10-18T19:16:41.433Z,46.83
2022-10-18T19:19:16.578Z,44.55
2022-10-18T19:21:53.290Z,43.85
2022-10-18T19:24:22.825Z,46.10
2022-10-18T19:26:55.749Z,45.33
2022-10-18T19:29:29.838Z,45.20
2022-10-18T19:32:00.752Z,46.28
2022-10-18T19:34:30.507Z,44.63
2022-10-18T19:36:58.266Z,42.42
2022-10-18T19:39:31.349Z,46.20
2022-10-18T19:42:03.596Z,48.10
2022-10-18T19:44:33.330Z,49.58
2022-10-18T19:47:01.568Z,43.30
2022-10-18T19:49:36.236Z,46.58
2022-10-18T19:52:06.355Z,48.58
2022-10-18T19:54:37.174Z,48.88
2022-10-18T19:57:05.267Z,45.08
2022-10-18T19:59:33.493Z,44.63
2022-10-18T20:02:02.172Z,47.97
2022-10-18T20:04:34.687Z,41.22
2022-10-18T20:07:03.277Z,45.15
2022-10-18T20:09:37.483Z,46.85
2022-10-18T20:12:17.652Z,45.95
2022-10-18T20:14:45.718Z,44.10
2022-10-18T20:17:18.531Z,43.85
2022-10-18T20:19:53.949Z,45.75
2022-10-18T20:22:35.575Z,43.30
2022-10-18T20:25:05.225Z,48.75
2022-10-18T20:27:34.373Z,50.63
2022-10-18T20:30:14.802Z,47.88
2022-10-18T20:32:54.279Z,46.30
2022-10-18T20:35:31.206Z,46.60
2022-10-18T20:38:01.662Z,48.58
2022-10-18T20:40:37.885Z,47.97
2022-10-18T20:43:14.096Z,46.75
2022-10-18T20:45:45.251Z,47.38
2022-10-18T20:48:12.900Z,47.65
2022-10-18T20:50:42.194Z,47.70
2022-10-18T20:53:09.755Z,45.50
2022-10-18T20:55:38.969Z,48.38
2022-10-18T20:58:07.017Z,44.63
2022-10-18T21:00:35.429Z,47.90
2022-10-18T21:03:03.795Z,45.03
2022-10-18T21:05:32.828Z,42.30
2022-10-18T21:08:01.430Z,45.20
2022-10-18T21:10:35.427Z,43.47
2022-10-18T21:13:15.236Z,44.85
2022-10-18T21:15:56.039Z,45.55
2022-10-18T21:18:25.657Z,42.72
2022-10-18T21:20:54.029Z,41.83
2022-10-18T21:23:22.775Z,45.58
2022-10-18T21:25:51.328Z,43.45
2022-10-18T21:28:18.971Z,42.03
2022-10-18T21:30:46.470Z,48.70
2022-10-18T21:33:16.667Z,43.35
2022-10-18T21:35:50.219Z,43.17
2022-10-18T21:38:18.178Z,43.55
2022-10-18T21:40:55.992Z,42.65
2022-10-18T21:48:02.640Z,43.67
2022-10-18T21:50:30.395Z,41.97
2022-10-18T21:53:01.657Z,44.28
2022-10-18T21:55:29.396Z,46.22
2022-10-18T21:57:57.059Z,45.83
2022-10-18T22:00:24.713Z,44.03
2022-10-18T22:03:38.040Z,44.75
2022-10-18T22:09:31.140Z,41.20
2022-10-18T22:12:51.895Z,49.50
2022-10-18T22:15:24.850Z,46.58
2022-10-18T22:17:57.041Z,45.25
2022-10-18T22:20:35.286Z,44.50
2022-10-18T22:23:13.107Z,46.30
2022-10-18T22:25:40.917Z,48.13
2022-10-18T22:28:16.420Z,50.97
2022-10-18T22:30:46.408Z,53.22
2022-10-18T22:33:19.268Z,45.67
2022-10-18T22:35:54.412Z,49.33
2022-10-18T22:38:26.559Z,46.92
2022-10-18T22:41:05.406Z,48.53
2022-10-18T22:43:34.635Z,46.72
2022-10-18T22:46:10.750Z,37.33
2022-10-18T22:48:41.338Z,40.80
2022-10-18T22:51:11.954Z,43.90
2022-10-18T22:53:40.325Z,43.42
2022-10-18T22:56:11.540Z,47.33
2022-10-18T22:58:39.223Z,47.80
2022-10-18T23:01:12.305Z,49.97
2022-10-18T23:07:18.974Z,50.05
2022-10-18T23:09:48.489Z,48.65
2022-10-18T23:12:16.232Z,48.70
2022-10-18T23:14:44.711Z,50.17
2022-10-18T23:17:12.584Z,46.13
2022-10-18T23:19:40.141Z,49.55
2022-10-18T23:22:07.849Z,47.72
2022-10-18T23:24:38.547Z,45.00
2022-10-18T23:30:43.007Z,48.45
2022-10-18T23:33:13.219Z,48.67
2022-10-18T23:35:43.530Z,51.17
2022-10-18T23:38:15.245Z,42.00
2022-10-18T23:40:42.919Z,41.65
2022-10-18T23:43:10.580Z,44.85
2022-10-18T23:45:38.864Z,49.60
2022-10-18T23:48:07.002Z,47.80
2022-10-18T23:50:34.573Z,50.65
2022-10-18T23:53:02.301Z,44.17
2022-10-18T23:55:32.226Z,49.28
2022-10-18T23:58:01.957Z,45.95
